Camp Williams, Utah
Current Conditions -  °F | °C
As of 10:53 PM on Wednesday 22 Oct 2014 (Local Time) from KSLC Reporting Station
Scattered Clouds Scattered Clouds  
Wind Chill: 45°   Ceiling: Unl
Heat Index: 48°   Visibility: 10mi
Dew Point: 32°   Wind: 7mph
Humidity: 54%   Direction: 140°SE
Pressure: 30.17"   Gusts: NA
Location:  40.5353°N, 111.962°W
Report Text: KSLC 230453Z 14006KT 10SM SCT200 09/00 A3017 RMK AO2 SLP199 T00890000
Loading
Personal Weather Stations






























Interactive Weather Map
Tropical Storm Tracking
New forecast layout! Learn more

10-Day Weather Forecast

Advertisements
Track Severe Weather on mobile